sensor_id;sensor_type;location;lat;lon;timestamp;noise_LAeq;noise_LA_min;noise_LA_max;noise_LA01;noise_LA95
68279;Laerm;55108;51.790;10.960;2024-03-25T00:00:15;39.50;35.21;55.42;;
68279;Laerm;55108;51.790;10.960;2024-03-25T00:02:41;38.15;35.41;46.03;;
68279;Laerm;55108;51.790;10.960;2024-03-25T00:05:07;40.79;35.86;52.41;;
68279;Laerm;55108;51.790;10.960;2024-03-25T00:07:36;38.46;35.90;46.70;;
68279;Laerm;55108;51.790;10.960;2024-03-25T00:10:03;55.21;35.80;71.86;;
68279;Laerm;55108;51.790;10.960;2024-03-25T00:12:28;38.11;35.63;46.81;;
68279;Laerm;55108;51.790;10.960;2024-03-25T00:14:54;39.23;36.25;46.45;;
68279;Laerm;55108;51.790;10.960;2024-03-25T00:17:20;40.65;36.09;61.38;;
68279;Laerm;55108;51.790;10.960;2024-03-25T00:19:46;46.76;35.95;60.55;;
68279;Laerm;55108;51.790;10.960;2024-03-25T00:22:16;38.52;35.40;47.33;;
68279;Laerm;55108;51.790;10.960;2024-03-25T00:24:42;38.33;35.28;49.26;;
68279;Laerm;55108;51.790;10.960;2024-03-25T00:27:08;54.03;36.24;71.47;;
68279;Laerm;55108;51.790;10.960;2024-03-25T00:29:34;53.56;37.48;72.01;;
68279;Laerm;55108;51.790;10.960;2024-03-25T00:31:59;37.36;35.44;43.02;;
68279;Laerm;55108;51.790;10.960;2024-03-25T00:34:25;45.01;35.62;65.24;;
68279;Laerm;55108;51.790;10.960;2024-03-25T00:36:51;44.83;35.02;64.93;;
68279;Laerm;55108;51.790;10.960;2024-03-25T00:39:17;38.52;34.74;47.65;;
68279;Laerm;55108;51.790;10.960;2024-03-25T00:41:44;43.71;34.67;65.08;;
68279;Laerm;55108;51.790;10.960;2024-03-25T00:44:09;39.32;35.66;51.97;;
68279;Laerm;55108;51.790;10.960;2024-03-25T00:46:36;52.89;35.26;69.49;;
68279;Laerm;55108;51.790;10.960;2024-03-25T00:49:02;38.48;34.95;60.79;;
68279;Laerm;55108;51.790;10.960;2024-03-25T00:51:27;60.06;35.59;76.19;;
68279;Laerm;55108;51.790;10.960;2024-03-25T00:53:53;43.32;37.33;50.82;;
68279;Laerm;55108;51.790;10.960;2024-03-25T00:56:19;59.34;36.14;77.57;;
68279;Laerm;55108;51.790;10.960;2024-03-25T00:58:45;37.21;35.05;45.71;;
68279;Laerm;55108;51.790;10.960;2024-03-25T01:01:11;50.90;34.65;67.21;;
68279;Laerm;55108;51.790;10.960;2024-03-25T01:03:37;36.90;34.96;45.36;;
68279;Laerm;55108;51.790;10.960;2024-03-25T01:06:03;35.65;34.38;38.11;;
68279;Laerm;55108;51.790;10.960;2024-03-25T01:08:29;36.11;34.87;38.77;;
68279;Laerm;55108;51.790;10.960;2024-03-25T01:10:55;37.04;35.09;41.37;;
68279;Laerm;55108;51.790;10.960;2024-03-25T01:13:21;43.06;35.76;57.66;;
68279;Laerm;55108;51.790;10.960;2024-03-25T01:15:46;41.84;36.18;56.07;;
68279;Laerm;55108;51.790;10.960;2024-03-25T01:18:12;38.75;35.49;53.09;;
68279;Laerm;55108;51.790;10.960;2024-03-25T01:20:38;38.87;35.62;49.23;;
68279;Laerm;55108;51.790;10.960;2024-03-25T01:23:04;37.69;35.93;43.83;;
68279;Laerm;55108;51.790;10.960;2024-03-25T01:25:30;38.19;35.74;41.40;;
68279;Laerm;55108;51.790;10.960;2024-03-25T01:27:55;37.48;35.77;47.97;;
68279;Laerm;55108;51.790;10.960;2024-03-25T01:30:21;41.95;36.52;55.39;;
68279;Laerm;55108;51.790;10.960;2024-03-25T01:32:47;55.03;36.87;71.91;;
68279;Laerm;55108;51.790;10.960;2024-03-25T01:35:14;52.11;37.93;66.61;;
68279;Laerm;55108;51.790;10.960;2024-03-25T01:37:40;57.89;38.82;75.67;;
68279;Laerm;55108;51.790;10.960;2024-03-25T01:40:06;44.76;39.79;55.95;;
68279;Laerm;55108;51.790;10.960;2024-03-25T01:42:32;46.32;41.03;53.66;;
68279;Laerm;55108;51.790;10.960;2024-03-25T01:44:58;42.60;39.90;51.09;;
68279;Laerm;55108;51.790;10.960;2024-03-25T01:47:24;39.33;37.11;43.13;;
68279;Laerm;55108;51.790;10.960;2024-03-25T01:49:50;37.60;36.45;40.19;;
68279;Laerm;55108;51.790;10.960;2024-03-25T01:52:18;38.00;36.29;51.14;;
68279;Laerm;55108;51.790;10.960;2024-03-25T01:54:45;37.79;36.17;41.44;;
68279;Laerm;55108;51.790;10.960;2024-03-25T01:57:10;37.14;36.08;42.36;;
68279;Laerm;55108;51.790;10.960;2024-03-25T01:59:36;36.99;35.72;40.21;;
68279;Laerm;55108;51.790;10.960;2024-03-25T02:02:02;38.49;35.75;53.76;;
68279;Laerm;55108;51.790;10.960;2024-03-25T02:04:28;36.77;35.83;42.08;;
68279;Laerm;55108;51.790;10.960;2024-03-25T02:06:54;36.84;35.92;45.81;;
68279;Laerm;55108;51.790;10.960;2024-03-25T02:09:23;38.02;36.15;44.31;;
68279;Laerm;55108;51.790;10.960;2024-03-25T02:11:49;36.86;36.04;43.35;;
68279;Laerm;55108;51.790;10.960;2024-03-25T02:14:15;51.02;35.89;67.65;;
68279;Laerm;55108;51.790;10.960;2024-03-25T02:16:41;38.76;36.12;45.36;;
68279;Laerm;55108;51.790;10.960;2024-03-25T02:19:07;37.15;36.22;38.89;;
68279;Laerm;55108;51.790;10.960;2024-03-25T02:21:33;53.96;36.41;72.65;;
68279;Laerm;55108;51.790;10.960;2024-03-25T02:23:59;63.28;36.77;80.92;;
68279;Laerm;55108;51.790;10.960;2024-03-25T02:26:25;41.30;37.23;49.68;;
68279;Laerm;55108;51.790;10.960;2024-03-25T02:28:51;38.84;37.30;42.22;;
68279;Laerm;55108;51.790;10.960;2024-03-25T02:31:17;38.56;37.46;43.97;;
68279;Laerm;55108;51.790;10.960;2024-03-25T02:33:43;61.58;36.96;76.79;;
68279;Laerm;55108;51.790;10.960;2024-03-25T02:36:08;38.06;36.95;42.82;;
68279;Laerm;55108;51.790;10.960;2024-03-25T02:38:34;51.95;36.77;67.64;;
68279;Laerm;55108;51.790;10.960;2024-03-25T02:41:00;56.39;36.95;72.15;;
68279;Laerm;55108;51.790;10.960;2024-03-25T02:43:26;41.57;36.89;51.99;;
68279;Laerm;55108;51.790;10.960;2024-03-25T02:45:52;38.86;36.40;48.46;;
68279;Laerm;55108;51.790;10.960;2024-03-25T02:48:18;38.78;37.00;54.40;;
68279;Laerm;55108;51.790;10.960;2024-03-25T02:50:43;39.34;37.18;47.64;;
68279;Laerm;55108;51.790;10.960;2024-03-25T02:53:09;39.54;37.04;43.35;;
68279;Laerm;55108;51.790;10.960;2024-03-25T02:55:35;42.70;37.22;60.63;;
68279;Laerm;55108;51.790;10.960;2024-03-25T02:58:01;61.54;37.63;80.74;;
68279;Laerm;55108;51.790;10.960;2024-03-25T03:00:27;64.08;39.30;78.46;;
68279;Laerm;55108;51.790;10.960;2024-03-25T03:02:52;52.93;37.79;70.68;;
68279;Laerm;55108;51.790;10.960;2024-03-25T03:05:18;60.53;37.12;76.88;;
68279;Laerm;55108;51.790;10.960;2024-03-25T03:07:44;42.12;36.60;59.84;;
68279;Laerm;55108;51.790;10.960;2024-03-25T03:10:10;65.06;39.68;83.30;;
68279;Laerm;55108;51.790;10.960;2024-03-25T03:12:35;61.79;36.45;77.08;;
68279;Laerm;55108;51.790;10.960;2024-03-25T03:15:01;56.66;36.25;71.90;;
68279;Laerm;55108;51.790;10.960;2024-03-25T03:17:27;54.96;36.43;71.45;;
68279;Laerm;55108;51.790;10.960;2024-03-25T03:19:52;37.73;36.04;40.88;;
68279;Laerm;55108;51.790;10.960;2024-03-25T03:22:18;61.84;36.27;78.53;;
68279;Laerm;55108;51.790;10.960;2024-03-25T03:24:44;37.28;36.10;39.71;;
68279;Laerm;55108;51.790;10.960;2024-03-25T03:27:09;38.80;35.78;48.49;;
68279;Laerm;55108;51.790;10.960;2024-03-25T03:29:35;56.93;35.74;73.79;;
68279;Laerm;55108;51.790;10.960;2024-03-25T03:32:01;65.02;35.63;80.49;;
68279;Laerm;55108;51.790;10.960;2024-03-25T03:34:27;60.10;36.90;74.67;;
68279;Laerm;55108;51.790;10.960;2024-03-25T03:36:52;59.07;36.09;76.32;;
68279;Laerm;55108;51.790;10.960;2024-03-25T03:39:18;53.77;35.91;71.16;;
68279;Laerm;55108;51.790;10.960;2024-03-25T03:41:44;59.59;36.22;73.39;;
68279;Laerm;55108;51.790;10.960;2024-03-25T03:44:09;51.76;35.88;68.19;;
68279;Laerm;55108;51.790;10.960;2024-03-25T03:46:37;50.90;35.77;69.55;;
68279;Laerm;55108;51.790;10.960;2024-03-25T03:49:03;47.73;35.78;62.78;;
68279;Laerm;55108;51.790;10.960;2024-03-25T03:51:28;56.67;35.93;73.74;;
68279;Laerm;55108;51.790;10.960;2024-03-25T03:53:54;40.26;36.13;46.90;;
68279;Laerm;55108;51.790;10.960;2024-03-25T03:56:20;60.39;36.06;75.80;;
68279;Laerm;55108;51.790;10.960;2024-03-25T03:58:45;40.50;35.54;56.11;;
68279;Laerm;55108;51.790;10.960;2024-03-25T04:01:15;60.30;35.96;76.09;;
68279;Laerm;55108;51.790;10.960;2024-03-25T04:03:41;55.43;35.89;69.65;;
68279;Laerm;55108;51.790;10.960;2024-03-25T04:06:07;60.65;36.03;73.75;;
68279;Laerm;55108;51.790;10.960;2024-03-25T04:08:33;58.29;37.39;72.47;;
68279;Laerm;55108;51.790;10.960;2024-03-25T04:11:00;57.09;36.15;70.25;;
68279;Laerm;55108;51.790;10.960;2024-03-25T04:13:26;61.63;37.85;75.99;;
68279;Laerm;55108;51.790;10.960;2024-03-25T04:15:52;59.83;37.12;70.18;;
68279;Laerm;55108;51.790;10.960;2024-03-25T04:18:18;59.69;37.85;72.68;;
68279;Laerm;55108;51.790;10.960;2024-03-25T04:20:44;59.67;38.18;73.09;;
68279;Laerm;55108;51.790;10.960;2024-03-25T04:23:10;58.32;37.84;71.62;;
68279;Laerm;55108;51.790;10.960;2024-03-25T04:25:35;62.14;38.60;77.89;;
68279;Laerm;55108;51.790;10.960;2024-03-25T04:28:02;63.86;40.13;78.05;;
68279;Laerm;55108;51.790;10.960;2024-03-25T04:30:28;60.89;38.34;78.10;;
68279;Laerm;55108;51.790;10.960;2024-03-25T04:32:54;52.53;37.02;68.28;;
68279;Laerm;55108;51.790;10.960;2024-03-25T04:35:20;60.23;40.04;72.41;;
68279;Laerm;55108;51.790;10.960;2024-03-25T04:37:45;62.58;41.49;73.46;;
68279;Laerm;55108;51.790;10.960;2024-03-25T04:40:11;63.76;38.09;77.05;;
68279;Laerm;55108;51.790;10.960;2024-03-25T04:42:39;63.84;37.17;73.05;;
68279;Laerm;55108;51.790;10.960;2024-03-25T04:45:05;59.70;39.04;71.70;;
68279;Laerm;55108;51.790;10.960;2024-03-25T04:47:31;64.26;40.10;77.10;;
68279;Laerm;55108;51.790;10.960;2024-03-25T04:49:56;61.98;36.73;73.62;;
68279;Laerm;55108;51.790;10.960;2024-03-25T04:52:22;63.79;39.20;77.51;;
68279;Laerm;55108;51.790;10.960;2024-03-25T04:54:49;63.64;38.99;76.56;;
68279;Laerm;55108;51.790;10.960;2024-03-25T04:57:15;63.68;40.66;74.12;;
68279;Laerm;55108;51.790;10.960;2024-03-25T04:59:41;64.20;38.33;76.74;;
68279;Laerm;55108;51.790;10.960;2024-03-25T05:02:06;61.00;39.20;73.88;;
68279;Laerm;55108;51.790;10.960;2024-03-25T05:04:33;64.02;39.61;77.11;;
68279;Laerm;55108;51.790;10.960;2024-03-25T05:06:58;65.11;42.27;76.45;;
68279;Laerm;55108;51.790;10.960;2024-03-25T05:09:24;60.85;38.85;77.11;;
68279;Laerm;55108;51.790;10.960;2024-03-25T05:11:50;58.64;40.25;71.95;;
68279;Laerm;55108;51.790;10.960;2024-03-25T05:14:15;65.47;42.88;76.70;;
68279;Laerm;55108;51.790;10.960;2024-03-25T05:16:41;63.18;39.51;78.94;;
68279;Laerm;55108;51.790;10.960;2024-03-25T05:19:07;62.40;40.67;73.45;;
68279;Laerm;55108;51.790;10.960;2024-03-25T05:21:33;64.31;44.34;78.08;;
68279;Laerm;55108;51.790;10.960;2024-03-25T05:23:58;63.40;39.99;74.64;;
68279;Laerm;55108;51.790;10.960;2024-03-25T05:26:24;62.82;40.44;74.65;;
68279;Laerm;55108;51.790;10.960;2024-03-25T05:28:53;63.20;40.76;73.44;;
68279;Laerm;55108;51.790;10.960;2024-03-25T05:31:19;62.69;40.56;74.08;;
68279;Laerm;55108;51.790;10.960;2024-03-25T05:33:45;64.33;45.92;75.51;;
68279;Laerm;55108;51.790;10.960;2024-03-25T05:36:11;62.78;39.10;74.46;;
68279;Laerm;55108;51.790;10.960;2024-03-25T05:38:36;63.55;39.23;72.72;;
68279;Laerm;55108;51.790;10.960;2024-03-25T05:41:03;64.79;42.45;77.72;;
68279;Laerm;55108;51.790;10.960;2024-03-25T05:43:29;63.61;43.46;73.79;;
68279;Laerm;55108;51.790;10.960;2024-03-25T05:45:55;61.39;39.78;76.47;;
68279;Laerm;55108;51.790;10.960;2024-03-25T05:48:21;62.34;39.01;74.97;;
68279;Laerm;55108;51.790;10.960;2024-03-25T05:50:56;64.17;39.82;75.63;;
68279;Laerm;55108;51.790;10.960;2024-03-25T05:53:22;63.12;40.32;77.39;;
68279;Laerm;55108;51.790;10.960;2024-03-25T05:55:48;63.86;44.66;71.90;;
68279;Laerm;55108;51.790;10.960;2024-03-25T05:58:13;65.07;42.69;76.59;;
68279;Laerm;55108;51.790;10.960;2024-03-25T06:00:39;63.67;45.77;74.98;;
68279;Laerm;55108;51.790;10.960;2024-03-25T06:03:05;61.38;39.57;73.44;;
68279;Laerm;55108;51.790;10.960;2024-03-25T06:05:30;63.66;42.79;74.04;;
68279;Laerm;55108;51.790;10.960;2024-03-25T06:07:56;64.57;43.31;76.50;;
68279;Laerm;55108;51.790;10.960;2024-03-25T06:10:22;62.92;38.73;76.12;;
68279;Laerm;55108;51.790;10.960;2024-03-25T06:12:48;66.86;44.92;77.70;;
68279;Laerm;55108;51.790;10.960;2024-03-25T06:15:13;66.39;54.16;76.29;;
68279;Laerm;55108;51.790;10.960;2024-03-25T06:17:39;66.07;45.75;80.86;;
68279;Laerm;55108;51.790;10.960;2024-03-25T06:20:05;63.45;41.14;73.82;;
68279;Laerm;55108;51.790;10.960;2024-03-25T06:22:31;63.97;38.62;78.52;;
68279;Laerm;55108;51.790;10.960;2024-03-25T06:24:56;64.08;44.87;75.58;;
68279;Laerm;55108;51.790;10.960;2024-03-25T06:27:22;66.48;44.48;79.15;;
68279;Laerm;55108;51.790;10.960;2024-03-25T06:29:49;65.20;41.10;79.30;;
68279;Laerm;55108;51.790;10.960;2024-03-25T06:32:35;63.42;39.78;74.59;;
68279;Laerm;55108;51.790;10.960;2024-03-25T06:35:19;62.80;40.98;77.86;;
68279;Laerm;55108;51.790;10.960;2024-03-25T06:37:45;66.45;41.65;77.55;;
68279;Laerm;55108;51.790;10.960;2024-03-25T06:40:11;64.79;41.38;75.12;;
68279;Laerm;55108;51.790;10.960;2024-03-25T06:42:37;66.20;44.00;77.23;;
68279;Laerm;55108;51.790;10.960;2024-03-25T06:45:03;64.65;46.35;75.62;;
68279;Laerm;55108;51.790;10.960;2024-03-25T06:47:28;64.49;42.03;74.17;;
68279;Laerm;55108;51.790;10.960;2024-03-25T06:49:54;64.73;41.96;75.27;;
68279;Laerm;55108;51.790;10.960;2024-03-25T06:52:20;65.93;48.17;77.17;;
68279;Laerm;55108;51.790;10.960;2024-03-25T06:54:45;64.48;43.72;72.67;;
68279;Laerm;55108;51.790;10.960;2024-03-25T06:57:11;64.71;45.18;76.17;;
68279;Laerm;55108;51.790;10.960;2024-03-25T06:59:37;64.31;44.96;75.38;;
68279;Laerm;55108;51.790;10.960;2024-03-25T07:02:02;72.34;48.18;83.00;;
68279;Laerm;55108;51.790;10.960;2024-03-25T07:04:28;66.88;46.95;79.80;;
68279;Laerm;55108;51.790;10.960;2024-03-25T07:06:54;60.73;42.38;74.22;;
68279;Laerm;55108;51.790;10.960;2024-03-25T07:09:20;66.65;43.87;76.88;;
68279;Laerm;55108;51.790;10.960;2024-03-25T07:11:45;68.42;45.62;80.40;;
68279;Laerm;55108;51.790;10.960;2024-03-25T07:14:12;66.35;44.85;78.78;;
68279;Laerm;55108;51.790;10.960;2024-03-25T07:16:37;65.62;44.71;75.40;;
68279;Laerm;55108;51.790;10.960;2024-03-25T07:19:03;64.30;41.06;74.20;;
68279;Laerm;55108;51.790;10.960;2024-03-25T07:21:29;67.05;45.05;78.08;;
68279;Laerm;55108;51.790;10.960;2024-03-25T07:23:54;64.78;43.56;78.28;;
68279;Laerm;55108;51.790;10.960;2024-03-25T07:26:20;68.96;44.90;80.78;;
68279;Laerm;55108;51.790;10.960;2024-03-25T07:28:46;65.18;40.25;76.33;;
68279;Laerm;55108;51.790;10.960;2024-03-25T07:31:11;64.62;41.00;74.07;;
68279;Laerm;55108;51.790;10.960;2024-03-25T07:33:37;69.10;44.45;83.35;;
68279;Laerm;55108;51.790;10.960;2024-03-25T07:36:03;66.53;43.47;77.74;;
68279;Laerm;55108;51.790;10.960;2024-03-25T07:38:29;67.95;42.54;82.02;;
68279;Laerm;55108;51.790;10.960;2024-03-25T07:40:54;62.85;37.99;78.67;;
68279;Laerm;55108;51.790;10.960;2024-03-25T07:43:20;66.75;43.73;78.38;;
68279;Laerm;55108;51.790;10.960;2024-03-25T07:45:46;64.73;46.14;74.04;;
68279;Laerm;55108;51.790;10.960;2024-03-25T07:48:11;64.55;45.26;78.42;;
68279;Laerm;55108;51.790;10.960;2024-03-25T07:50:37;68.59;49.09;82.22;;
68279;Laerm;55108;51.790;10.960;2024-03-25T07:53:03;64.90;45.20;78.20;;
68279;Laerm;55108;51.790;10.960;2024-03-25T07:55:29;66.41;43.60;77.42;;
68279;Laerm;55108;51.790;10.960;2024-03-25T07:57:54;64.40;48.09;75.07;;
68279;Laerm;55108;51.790;10.960;2024-03-25T08:00:20;64.95;43.07;76.92;;
68279;Laerm;55108;51.790;10.960;2024-03-25T08:02:46;66.00;45.94;75.61;;
68279;Laerm;55108;51.790;10.960;2024-03-25T08:05:11;68.34;41.34;83.52;;
68279;Laerm;55108;51.790;10.960;2024-03-25T08:07:37;65.39;44.39;75.55;;
68279;Laerm;55108;51.790;10.960;2024-03-25T08:10:03;65.98;45.21;79.90;;
68279;Laerm;55108;51.790;10.960;2024-03-25T08:12:29;62.66;43.09;74.11;;
68279;Laerm;55108;51.790;10.960;2024-03-25T08:14:54;65.24;45.80;78.14;;
68279;Laerm;55108;51.790;10.960;2024-03-25T08:17:20;64.58;41.44;74.76;;
68279;Laerm;55108;51.790;10.960;2024-03-25T08:19:46;66.06;51.71;78.73;;
68279;Laerm;55108;51.790;10.960;2024-03-25T08:22:12;68.46;61.92;73.61;;
68279;Laerm;55108;51.790;10.960;2024-03-25T08:24:37;68.57;53.76;78.72;;
68279;Laerm;55108;51.790;10.960;2024-03-25T08:27:03;69.47;53.33;75.77;;
68279;Laerm;55108;51.790;10.960;2024-03-25T08:29:29;67.63;56.21;72.95;;
68279;Laerm;55108;51.790;10.960;2024-03-25T08:31:54;67.09;58.63;76.37;;
68279;Laerm;55108;51.790;10.960;2024-03-25T08:34:20;65.67;59.05;79.18;;
68279;Laerm;55108;51.790;10.960;2024-03-25T08:36:46;66.28;47.44;75.06;;
68279;Laerm;55108;51.790;10.960;2024-03-25T08:39:12;65.05;45.79;77.06;;
68279;Laerm;55108;51.790;10.960;2024-03-25T08:41:37;63.66;54.19;71.88;;
68279;Laerm;55108;51.790;10.960;2024-03-25T08:44:03;65.60;53.50;75.43;;
68279;Laerm;55108;51.790;10.960;2024-03-25T08:46:29;66.46;56.72;78.24;;
68279;Laerm;55108;51.790;10.960;2024-03-25T08:48:54;65.34;56.36;77.84;;
68279;Laerm;55108;51.790;10.960;2024-03-25T08:51:20;63.92;49.73;72.70;;
68279;Laerm;55108;51.790;10.960;2024-03-25T08:53:46;67.37;50.08;81.58;;
68279;Laerm;55108;51.790;10.960;2024-03-25T08:56:12;65.27;49.69;73.80;;
68279;Laerm;55108;51.790;10.960;2024-03-25T08:58:37;66.53;41.20;80.04;;
68279;Laerm;55108;51.790;10.960;2024-03-25T09:01:03;63.10;41.46;74.44;;
68279;Laerm;55108;51.790;10.960;2024-03-25T09:03:29;66.12;45.86;78.46;;
68279;Laerm;55108;51.790;10.960;2024-03-25T09:05:55;63.73;41.10;74.49;;
68279;Laerm;55108;51.790;10.960;2024-03-25T09:08:21;64.77;46.29;76.52;;
68279;Laerm;55108;51.790;10.960;2024-03-25T09:10:47;64.29;41.89;73.98;;
68279;Laerm;55108;51.790;10.960;2024-03-25T09:13:28;65.21;41.71;75.77;;
68279;Laerm;55108;51.790;10.960;2024-03-25T09:15:53;66.74;47.82;77.14;;
68279;Laerm;55108;51.790;10.960;2024-03-25T09:18:19;65.40;43.71;76.08;;
68279;Laerm;55108;51.790;10.960;2024-03-25T09:20:45;63.33;42.10;72.62;;
68279;Laerm;55108;51.790;10.960;2024-03-25T09:23:11;65.38;43.00;74.50;;
68279;Laerm;55108;51.790;10.960;2024-03-25T09:25:36;64.68;42.86;73.48;;
68279;Laerm;55108;51.790;10.960;2024-03-25T09:28:02;63.94;43.34;73.59;;
68279;Laerm;55108;51.790;10.960;2024-03-25T09:30:28;65.18;44.30;73.04;;
68279;Laerm;55108;51.790;10.960;2024-03-25T09:32:54;64.51;43.87;74.80;;
68279;Laerm;55108;51.790;10.960;2024-03-25T09:35:19;66.38;50.18;78.63;;
68279;Laerm;55108;51.790;10.960;2024-03-25T09:37:45;63.66;43.01;75.47;;
68279;Laerm;55108;51.790;10.960;2024-03-25T09:40:11;63.15;45.86;72.46;;
68279;Laerm;55108;51.790;10.960;2024-03-25T09:42:49;65.85;45.91;79.83;;
68279;Laerm;55108;51.790;10.960;2024-03-25T09:45:17;64.81;42.07;77.05;;
68279;Laerm;55108;51.790;10.960;2024-03-25T09:47:46;64.82;43.05;74.19;;
68279;Laerm;55108;51.790;10.960;2024-03-25T09:50:12;65.99;50.38;77.39;;
68279;Laerm;55108;51.790;10.960;2024-03-25T09:52:39;65.60;51.47;74.79;;
68279;Laerm;55108;51.790;10.960;2024-03-25T09:55:05;67.18;49.85;79.71;;
68279;Laerm;55108;51.790;10.960;2024-03-25T09:57:31;65.29;41.07;75.57;;
68279;Laerm;55108;51.790;10.960;2024-03-25T09:59:57;62.30;46.30;71.34;;
68279;Laerm;55108;51.790;10.960;2024-03-25T10:02:23;64.43;48.51;70.65;;
68279;Laerm;55108;51.790;10.960;2024-03-25T10:04:51;64.61;43.39;76.97;;
68279;Laerm;55108;51.790;10.960;2024-03-25T10:07:23;66.70;46.22;80.24;;
68279;Laerm;55108;51.790;10.960;2024-03-25T10:09:49;65.29;48.18;75.40;;
68279;Laerm;55108;51.790;10.960;2024-03-25T10:12:15;65.77;44.41;75.33;;
68279;Laerm;55108;51.790;10.960;2024-03-25T10:14:41;64.40;42.02;73.55;;
68279;Laerm;55108;51.790;10.960;2024-03-25T10:17:07;65.67;42.82;76.33;;
68279;Laerm;55108;51.790;10.960;2024-03-25T10:19:33;63.46;40.89;72.48;;
68279;Laerm;55108;51.790;10.960;2024-03-25T10:22:05;64.95;41.81;76.65;;
68279;Laerm;55108;51.790;10.960;2024-03-25T10:24:40;63.66;39.14;73.39;;
68279;Laerm;55108;51.790;10.960;2024-03-25T10:27:09;63.80;41.01;73.14;;
68279;Laerm;55108;51.790;10.960;2024-03-25T10:29:36;64.82;45.54;74.03;;
68279;Laerm;55108;51.790;10.960;2024-03-25T10:32:02;65.60;41.38;79.21;;
68279;Laerm;55108;51.790;10.960;2024-03-25T10:34:29;64.06;39.94;77.44;;
68279;Laerm;55108;51.790;10.960;2024-03-25T10:36:58;63.67;42.22;72.85;;
68279;Laerm;55108;51.790;10.960;2024-03-25T10:39:25;64.78;42.85;78.43;;
68279;Laerm;55108;51.790;10.960;2024-03-25T10:41:54;64.15;45.58;75.45;;
68279;Laerm;55108;51.790;10.960;2024-03-25T10:44:20;66.09;50.52;73.28;;
68279;Laerm;55108;51.790;10.960;2024-03-25T10:46:47;65.57;49.30;75.15;;
68279;Laerm;55108;51.790;10.960;2024-03-25T10:49:16;64.25;41.70;73.23;;
68279;Laerm;55108;51.790;10.960;2024-03-25T10:51:45;63.40;43.88;73.90;;
68279;Laerm;55108;51.790;10.960;2024-03-25T10:54:11;65.28;45.55;75.82;;
68279;Laerm;55108;51.790;10.960;2024-03-25T10:56:37;64.14;43.72;73.34;;
68279;Laerm;55108;51.790;10.960;2024-03-25T10:59:04;66.15;44.59;75.59;;
68279;Laerm;55108;51.790;10.960;2024-03-25T11:01:31;65.57;43.73;80.08;;
68279;Laerm;55108;51.790;10.960;2024-03-25T11:03:57;64.53;45.21;72.43;;
68279;Laerm;55108;51.790;10.960;2024-03-25T11:06:23;63.90;41.66;78.12;;
68279;Laerm;55108;51.790;10.960;2024-03-25T11:08:58;64.29;45.59;73.65;;
68279;Laerm;55108;51.790;10.960;2024-03-25T11:11:24;64.22;43.93;74.36;;
68279;Laerm;55108;51.790;10.960;2024-03-25T11:13:55;63.32;38.06;74.46;;
68279;Laerm;55108;51.790;10.960;2024-03-25T11:16:30;65.16;44.55;75.78;;
68279;Laerm;55108;51.790;10.960;2024-03-25T11:19:02;65.67;42.29;77.93;;
68279;Laerm;55108;51.790;10.960;2024-03-25T11:21:28;64.18;42.31;75.60;;
68279;Laerm;55108;51.790;10.960;2024-03-25T11:23:54;65.45;42.86;76.51;;
68279;Laerm;55108;51.790;10.960;2024-03-25T11:26:25;64.27;40.54;74.94;;
68279;Laerm;55108;51.790;10.960;2024-03-25T11:28:52;64.38;42.57;74.57;;
68279;Laerm;55108;51.790;10.960;2024-03-25T11:31:20;65.62;44.68;75.37;;
68279;Laerm;55108;51.790;10.960;2024-03-25T11:33:45;64.59;39.60;78.61;;
68279;Laerm;55108;51.790;10.960;2024-03-25T11:36:11;64.25;41.94;75.56;;
68279;Laerm;55108;51.790;10.960;2024-03-25T11:38:37;64.16;38.12;75.51;;
68279;Laerm;55108;51.790;10.960;2024-03-25T11:41:05;65.44;43.93;79.14;;
68279;Laerm;55108;51.790;10.960;2024-03-25T11:43:32;62.23;41.98;72.85;;
68279;Laerm;55108;51.790;10.960;2024-03-25T11:45:58;63.44;40.92;74.23;;
68279;Laerm;55108;51.790;10.960;2024-03-25T11:48:24;64.35;43.85;76.79;;
68279;Laerm;55108;51.790;10.960;2024-03-25T11:50:49;64.82;42.28;75.00;;
68279;Laerm;55108;51.790;10.960;2024-03-25T11:53:15;64.77;44.13;77.43;;
68279;Laerm;55108;51.790;10.960;2024-03-25T11:55:45;62.82;39.12;73.26;;
68279;Laerm;55108;51.790;10.960;2024-03-25T11:58:11;64.15;43.79;76.84;;
68279;Laerm;55108;51.790;10.960;2024-03-25T12:00:43;64.08;42.35;77.53;;
68279;Laerm;55108;51.790;10.960;2024-03-25T12:03:09;64.44;39.66;72.24;;
68279;Laerm;55108;51.790;10.960;2024-03-25T12:05:36;65.70;42.50;76.75;;
68279;Laerm;55108;51.790;10.960;2024-03-25T12:08:02;64.37;40.11;75.60;;
68279;Laerm;55108;51.790;10.960;2024-03-25T12:10:28;62.91;40.16;73.24;;
68279;Laerm;55108;51.790;10.960;2024-03-25T12:13:12;62.32;38.70;76.54;;
68279;Laerm;55108;51.790;10.960;2024-03-25T12:15:37;61.04;39.05;71.85;;
68279;Laerm;55108;51.790;10.960;2024-03-25T12:18:03;64.96;42.25;73.78;;
68279;Laerm;55108;51.790;10.960;2024-03-25T12:20:30;63.90;43.09;72.43;;
68279;Laerm;55108;51.790;10.960;2024-03-25T12:22:55;63.43;39.62;73.04;;
68279;Laerm;55108;51.790;10.960;2024-03-25T12:25:21;62.66;40.52;75.21;;
68279;Laerm;55108;51.790;10.960;2024-03-25T12:27:47;64.44;45.00;78.45;;
68279;Laerm;55108;51.790;10.960;2024-03-25T12:30:13;64.37;37.69;79.44;;
68279;Laerm;55108;51.790;10.960;2024-03-25T12:32:40;63.72;41.90;72.54;;
68279;Laerm;55108;51.790;10.960;2024-03-25T12:35:10;65.28;41.16;73.79;;
68279;Laerm;55108;51.790;10.960;2024-03-25T12:37:36;63.08;38.69;72.26;;
68279;Laerm;55108;51.790;10.960;2024-03-25T12:40:02;65.78;40.75;76.00;;
68279;Laerm;55108;51.790;10.960;2024-03-25T12:42:29;63.34;40.88;75.22;;
68279;Laerm;55108;51.790;10.960;2024-03-25T12:44:55;63.63;40.15;73.20;;
68279;Laerm;55108;51.790;10.960;2024-03-25T12:47:21;63.12;36.47;75.38;;
68279;Laerm;55108;51.790;10.960;2024-03-25T12:49:46;63.31;38.47;74.73;;
68279;Laerm;55108;51.790;10.960;2024-03-25T12:52:12;64.90;43.29;75.04;;
68279;Laerm;55108;51.790;10.960;2024-03-25T12:54:38;64.48;39.80;78.08;;
68279;Laerm;55108;51.790;10.960;2024-03-25T12:57:05;64.31;39.53;74.44;;
68279;Laerm;55108;51.790;10.960;2024-03-25T12:59:30;60.92;39.95;73.46;;
68279;Laerm;55108;51.790;10.960;2024-03-25T13:01:56;63.12;44.69;72.28;;
68279;Laerm;55108;51.790;10.960;2024-03-25T13:04:22;62.79;42.59;71.92;;
68279;Laerm;55108;51.790;10.960;2024-03-25T13:06:48;65.88;48.22;77.58;;
68279;Laerm;55108;51.790;10.960;2024-03-25T13:09:13;63.46;37.74;75.33;;
68279;Laerm;55108;51.790;10.960;2024-03-25T13:11:39;62.78;39.91;77.26;;
68279;Laerm;55108;51.790;10.960;2024-03-25T13:14:05;67.93;39.89;84.28;;
68279;Laerm;55108;51.790;10.960;2024-03-25T13:16:32;64.72;45.63;77.24;;
68279;Laerm;55108;51.790;10.960;2024-03-25T13:18:58;63.91;38.95;72.09;;
68279;Laerm;55108;51.790;10.960;2024-03-25T13:21:24;63.35;41.05;72.04;;
68279;Laerm;55108;51.790;10.960;2024-03-25T13:23:50;68.63;48.43;82.29;;
68279;Laerm;55108;51.790;10.960;2024-03-25T13:26:16;64.58;43.43;75.66;;